Albany, New York
Traffic Map
Current Weather Conditions
Albany, New York
Broken Clouds
Broken Clouds
66°
Feels Like: 66°
Wind Chill: 66° Ceiling: 4400
Heat Index: 66° Visibility: 10mi
Dew Point: 51° Wind: 8mph
Humidity: 59% Direction: 90° (E)
Pressure: 30.2in Gusts: 0mph
Raw Report DataKALB 281951Z 09007KT 10SM FEW038 BKN044 BKN200 19/11 A3020 RMK AO2 SLP228 T01890106
Traffic Incident Summary
Active as of:
Severity:
Category:
InformationThere was an issue retrieving the traffic information for this location. Please try a different location or try again shortly.
Advertisements
Track Severe Weather on mobile